sensor_id;sensor_type;location;lat;lon;timestamp;pressure;altitude;pressure_sealevel;temperature;humidity
21988;BME280;11158;53.404;-1.510;2023-05-25T00:01:08;101782.16;;;21.08;44.27
21988;BME280;11158;53.404;-1.510;2023-05-25T00:03:52;101782.06;;;21.22;43.77
21988;BME280;11158;53.404;-1.510;2023-05-25T00:06:38;101783.22;;;21.58;42.89
21988;BME280;11158;53.404;-1.510;2023-05-25T00:09:23;101776.22;;;21.18;43.83
21988;BME280;11158;53.404;-1.510;2023-05-25T00:12:08;101784.44;;;21.37;43.43
21988;BME280;11158;53.404;-1.510;2023-05-25T00:14:53;101784.22;;;21.38;43.18
21988;BME280;11158;53.404;-1.510;2023-05-25T00:17:37;101785.56;;;21.54;43.04
21988;BME280;11158;53.404;-1.510;2023-05-25T00:20:22;101788.06;;;21.05;44.26
21988;BME280;11158;53.404;-1.510;2023-05-25T00:23:06;101782.16;;;21.40;43.16
21988;BME280;11158;53.404;-1.510;2023-05-25T00:25:50;101785.34;;;21.30;43.58
21988;BME280;11158;53.404;-1.510;2023-05-25T00:28:34;101784.81;;;20.90;44.15
21988;BME280;11158;53.404;-1.510;2023-05-25T00:31:19;101784.50;;;20.73;44.74
21988;BME280;11158;53.404;-1.510;2023-05-25T00:34:03;101785.63;;;20.90;44.33
21988;BME280;11158;53.404;-1.510;2023-05-25T00:36:47;101786.88;;;20.95;44.55
21988;BME280;11158;53.404;-1.510;2023-05-25T00:39:32;101788.06;;;21.05;44.32
21988;BME280;11158;53.404;-1.510;2023-05-25T00:42:16;101793.66;;;21.42;43.42
21988;BME280;11158;53.404;-1.510;2023-05-25T00:45:05;101785.72;;;21.09;44.31
21988;BME280;11158;53.404;-1.510;2023-05-25T00:47:50;101784.34;;;20.61;45.85
21988;BME280;11158;53.404;-1.510;2023-05-25T00:50:40;101788.22;;;21.10;44.69
21988;BME280;11158;53.404;-1.510;2023-05-25T00:53:25;101788.59;;;21.39;43.75
21988;BME280;11158;53.404;-1.510;2023-05-25T00:56:14;101792.56;;;21.43;43.54
21988;BME280;11158;53.404;-1.510;2023-05-25T00:59:05;101801.94;;;20.90;45.01
21988;BME280;11158;53.404;-1.510;2023-05-25T01:01:52;101800.31;;;21.15;44.54
21988;BME280;11158;53.404;-1.510;2023-05-25T01:04:44;101791.78;;;20.79;45.71
21988;BME280;11158;53.404;-1.510;2023-05-25T01:07:29;101801.25;;;21.02;45.21
21988;BME280;11158;53.404;-1.510;2023-05-25T01:10:15;101793.84;;;21.41;44.31
21988;BME280;11158;53.404;-1.510;2023-05-25T01:13:01;101792.72;;;21.48;44.12
21988;BME280;11158;53.404;-1.510;2023-05-25T01:15:46;101791.38;;;21.32;44.14
21988;BME280;11158;53.404;-1.510;2023-05-25T01:18:31;101792.16;;;21.40;43.84
21988;BME280;11158;53.404;-1.510;2023-05-25T01:21:20;101792.00;;;21.60;43.32
21988;BME280;11158;53.404;-1.510;2023-05-25T01:24:27;101794.47;;;21.43;44.71
21988;BME280;11158;53.404;-1.510;2023-05-25T01:27:22;101795.25;;;21.50;44.53
21988;BME280;11158;53.404;-1.510;2023-05-25T01:30:12;101798.38;;;21.22;45.42
21988;BME280;11158;53.404;-1.510;2023-05-25T01:32:58;101787.75;;;21.13;45.52
21988;BME280;11158;53.404;-1.510;2023-05-25T01:35:43;101790.78;;;21.30;45.03
21988;BME280;11158;53.404;-1.510;2023-05-25T01:38:28;101791.31;;;21.14;45.69
21988;BME280;11158;53.404;-1.510;2023-05-25T01:41:20;101790.03;;;20.53;47.40
21988;BME280;11158;53.404;-1.510;2023-05-25T01:44:05;101788.22;;;20.79;47.01
21988;BME280;11158;53.404;-1.510;2023-05-25T01:47:14;101785.25;;;20.87;46.87
21988;BME280;11158;53.404;-1.510;2023-05-25T01:53:03;101793.94;;;21.52;45.42
21988;BME280;11158;53.404;-1.510;2023-05-25T01:56:06;101804.69;;;21.47;45.64
21988;BME280;11158;53.404;-1.510;2023-05-25T01:58:52;101794.47;;;21.11;45.17
21988;BME280;11158;53.404;-1.510;2023-05-25T02:01:39;101805.84;;;21.01;45.53
21988;BME280;11158;53.404;-1.510;2023-05-25T02:04:25;101804.28;;;20.87;45.84
21988;BME280;11158;53.404;-1.510;2023-05-25T02:07:10;101799.59;;;20.11;47.74
21988;BME280;11158;53.404;-1.510;2023-05-25T02:09:54;101804.03;;;19.92;48.54
21988;BME280;11158;53.404;-1.510;2023-05-25T02:12:39;101803.66;;;20.40;47.38
21988;BME280;11158;53.404;-1.510;2023-05-25T02:15:23;101816.63;;;20.83;46.41
21988;BME280;11158;53.404;-1.510;2023-05-25T02:18:07;101810.91;;;20.91;46.18
21988;BME280;11158;53.404;-1.510;2023-05-25T02:20:51;101809.56;;;20.75;46.52
21988;BME280;11158;53.404;-1.510;2023-05-25T02:23:36;101813.41;;;20.54;46.87
21988;BME280;11158;53.404;-1.510;2023-05-25T02:26:20;101812.78;;;20.52;46.71
21988;BME280;11158;53.404;-1.510;2023-05-25T02:29:04;101809.03;;;20.60;45.87
21988;BME280;11158;53.404;-1.510;2023-05-25T02:31:49;101813.03;;;20.44;46.03
21988;BME280;11158;53.404;-1.510;2023-05-25T02:34:33;101815.97;;;19.71;47.20
21988;BME280;11158;53.404;-1.510;2023-05-25T02:37:17;101815.75;;;19.32;47.13
21988;BME280;11158;53.404;-1.510;2023-05-25T02:40:03;101818.63;;;19.24;46.60
21988;BME280;11158;53.404;-1.510;2023-05-25T02:42:47;101820.56;;;18.62;47.46
21988;BME280;11158;53.404;-1.510;2023-05-25T02:45:31;101824.97;;;18.15;49.41
21988;BME280;11158;53.404;-1.510;2023-05-25T02:48:15;101822.78;;;17.69;49.52
21988;BME280;11158;53.404;-1.510;2023-05-25T02:50:59;101821.03;;;18.17;48.47
21988;BME280;11158;53.404;-1.510;2023-05-25T02:53:45;101828.44;;;18.50;47.69
21988;BME280;11158;53.404;-1.510;2023-05-25T02:56:30;101840.47;;;17.22;50.40
21988;BME280;11158;53.404;-1.510;2023-05-25T02:59:14;101838.41;;;17.24;50.49
21988;BME280;11158;53.404;-1.510;2023-05-25T03:01:58;101831.00;;;17.32;50.93
21988;BME280;11158;53.404;-1.510;2023-05-25T03:04:46;101820.53;;;18.00;49.05
21988;BME280;11158;53.404;-1.510;2023-05-25T03:07:32;101826.41;;;18.11;48.79
21988;BME280;11158;53.404;-1.510;2023-05-25T03:10:17;101833.63;;;18.04;48.80
21988;BME280;11158;53.404;-1.510;2023-05-25T03:13:01;101832.00;;;18.09;48.99
21988;BME280;11158;53.404;-1.510;2023-05-25T03:15:45;101831.75;;;17.76;49.48
21988;BME280;11158;53.404;-1.510;2023-05-25T03:18:29;101841.69;;;17.19;50.96
21988;BME280;11158;53.404;-1.510;2023-05-25T03:21:13;101847.53;;;17.44;50.69
21988;BME280;11158;53.404;-1.510;2023-05-25T03:23:57;101841.81;;;17.32;50.92
21988;BME280;11158;53.404;-1.510;2023-05-25T03:26:42;101844.72;;;17.59;50.51
21988;BME280;11158;53.404;-1.510;2023-05-25T03:29:26;101844.31;;;17.84;49.30
21988;BME280;11158;53.404;-1.510;2023-05-25T03:32:10;101840.66;;;17.98;49.12
21988;BME280;11158;53.404;-1.510;2023-05-25T03:34:54;101849.28;;;17.30;50.75
21988;BME280;11158;53.404;-1.510;2023-05-25T03:37:38;101853.69;;;17.59;50.30
21988;BME280;11158;53.404;-1.510;2023-05-25T03:40:23;101854.88;;;17.29;50.22
21988;BME280;11158;53.404;-1.510;2023-05-25T03:43:07;101860.47;;;17.77;48.89
21988;BME280;11158;53.404;-1.510;2023-05-25T03:45:54;101856.81;;;17.35;49.36
21988;BME280;11158;53.404;-1.510;2023-05-25T03:48:38;101867.44;;;17.36;49.86
21988;BME280;11158;53.404;-1.510;2023-05-25T03:51:22;101853.53;;;17.68;47.86
21988;BME280;11158;53.404;-1.510;2023-05-25T03:54:06;101859.84;;;16.74;49.42
21988;BME280;11158;53.404;-1.510;2023-05-25T03:56:50;101863.63;;;17.09;48.46
21988;BME280;11158;53.404;-1.510;2023-05-25T03:59:34;101870.47;;;16.90;48.99
21988;BME280;11158;53.404;-1.510;2023-05-25T04:02:18;101867.16;;;17.10;48.60
21988;BME280;11158;53.404;-1.510;2023-05-25T04:05:03;101868.19;;;17.09;48.94
21988;BME280;11158;53.404;-1.510;2023-05-25T04:07:47;101876.03;;;17.25;47.73
21988;BME280;11158;53.404;-1.510;2023-05-25T04:10:31;101881.31;;;16.61;49.81
21988;BME280;11158;53.404;-1.510;2023-05-25T04:13:15;101881.22;;;16.84;49.69
21988;BME280;11158;53.404;-1.510;2023-05-25T04:15:59;101878.22;;;17.15;48.99
21988;BME280;11158;53.404;-1.510;2023-05-25T04:18:44;101886.34;;;16.64;50.18
21988;BME280;11158;53.404;-1.510;2023-05-25T04:21:28;101883.97;;;16.90;49.71
21988;BME280;11158;53.404;-1.510;2023-05-25T04:24:12;101886.66;;;16.90;50.05
21988;BME280;11158;53.404;-1.510;2023-05-25T04:26:56;101890.59;;;16.88;49.94
21988;BME280;11158;53.404;-1.510;2023-05-25T04:29:40;101895.09;;;16.66;51.06
21988;BME280;11158;53.404;-1.510;2023-05-25T04:32:24;101891.63;;;16.42;51.00
21988;BME280;11158;53.404;-1.510;2023-05-25T04:35:12;101888.91;;;16.72;50.08
21988;BME280;11158;53.404;-1.510;2023-05-25T04:37:59;101902.81;;;16.84;50.32
21988;BME280;11158;53.404;-1.510;2023-05-25T04:40:45;101893.94;;;16.75;49.74
21988;BME280;11158;53.404;-1.510;2023-05-25T04:43:29;101901.53;;;17.16;48.62
21988;BME280;11158;53.404;-1.510;2023-05-25T04:46:13;101901.13;;;17.19;47.48
21988;BME280;11158;53.404;-1.510;2023-05-25T04:48:59;101914.16;;;16.64;47.59
21988;BME280;11158;53.404;-1.510;2023-05-25T04:51:44;101920.94;;;16.60;47.34
21988;BME280;11158;53.404;-1.510;2023-05-25T04:54:28;101913.22;;;16.42;48.16
21988;BME280;11158;53.404;-1.510;2023-05-25T04:57:12;101911.19;;;16.44;48.21
21988;BME280;11158;53.404;-1.510;2023-05-25T04:59:56;101910.91;;;17.42;46.01
21988;BME280;11158;53.404;-1.510;2023-05-25T05:02:41;101912.28;;;18.02;43.85
21988;BME280;11158;53.404;-1.510;2023-05-25T05:05:25;101913.09;;;17.96;43.55
21988;BME280;11158;53.404;-1.510;2023-05-25T05:08:10;101906.53;;;18.47;42.86
21988;BME280;11158;53.404;-1.510;2023-05-25T05:10:54;101911.25;;;18.73;42.31
21988;BME280;11158;53.404;-1.510;2023-05-25T05:13:38;101908.75;;;18.36;42.54
21988;BME280;11158;53.404;-1.510;2023-05-25T05:16:22;101909.81;;;18.07;44.21
21988;BME280;11158;53.404;-1.510;2023-05-25T05:19:07;101920.41;;;18.30;43.77
21988;BME280;11158;53.404;-1.510;2023-05-25T05:21:51;101918.91;;;18.62;44.27
21988;BME280;11158;53.404;-1.510;2023-05-25T05:24:35;101914.13;;;19.06;43.23
21988;BME280;11158;53.404;-1.510;2023-05-25T05:27:19;101917.16;;;19.91;41.00
21988;BME280;11158;53.404;-1.510;2023-05-25T05:30:04;101921.66;;;20.44;39.79
21988;BME280;11158;53.404;-1.510;2023-05-25T05:32:48;101931.44;;;21.17;38.14
21988;BME280;11158;53.404;-1.510;2023-05-25T05:35:32;101919.53;;;22.00;36.04
21988;BME280;11158;53.404;-1.510;2023-05-25T05:38:17;101924.25;;;22.11;34.96
21988;BME280;11158;53.404;-1.510;2023-05-25T05:41:02;101921.88;;;23.25;32.47
21988;BME280;11158;53.404;-1.510;2023-05-25T05:43:46;101915.53;;;24.73;30.52
21988;BME280;11158;53.404;-1.510;2023-05-25T05:46:30;101911.44;;;26.34;27.50
21988;BME280;11158;53.404;-1.510;2023-05-25T05:49:14;101909.63;;;27.33;26.16
21988;BME280;11158;53.404;-1.510;2023-05-25T05:51:59;101904.19;;;28.71;23.83
21988;BME280;11158;53.404;-1.510;2023-05-25T05:54:43;101898.56;;;29.75;23.03
21988;BME280;11158;53.404;-1.510;2023-05-25T05:57:27;101919.75;;;29.43;23.16
21988;BME280;11158;53.404;-1.510;2023-05-25T06:00:12;101919.59;;;28.77;23.67
21988;BME280;11158;53.404;-1.510;2023-05-25T06:02:56;101917.19;;;27.85;25.16
21988;BME280;11158;53.404;-1.510;2023-05-25T06:05:40;101922.97;;;26.36;26.51
21988;BME280;11158;53.404;-1.510;2023-05-25T06:08:24;101922.56;;;26.44;26.48
21988;BME280;11158;53.404;-1.510;2023-05-25T06:11:09;101934.44;;;25.94;27.75
21988;BME280;11158;53.404;-1.510;2023-05-25T06:13:54;101931.41;;;26.51;26.52
21988;BME280;11158;53.404;-1.510;2023-05-25T06:16:38;101926.31;;;26.82;25.60
21988;BME280;11158;53.404;-1.510;2023-05-25T06:19:23;101929.47;;;25.28;27.77
21988;BME280;11158;53.404;-1.510;2023-05-25T06:22:07;101923.88;;;25.86;27.54
21988;BME280;11158;53.404;-1.510;2023-05-25T06:24:51;101930.72;;;25.21;28.19
21988;BME280;11158;53.404;-1.510;2023-05-25T06:27:35;101933.09;;;25.46;28.33
21988;BME280;11158;53.404;-1.510;2023-05-25T06:30:19;101941.75;;;25.26;28.94
21988;BME280;11158;53.404;-1.510;2023-05-25T06:33:03;101937.53;;;25.06;28.86
21988;BME280;11158;53.404;-1.510;2023-05-25T06:35:48;101943.00;;;24.66;29.78
21988;BME280;11158;53.404;-1.510;2023-05-25T06:38:32;101942.31;;;25.90;28.06
21988;BME280;11158;53.404;-1.510;2023-05-25T06:41:17;101920.72;;;27.48;26.08
21988;BME280;11158;53.404;-1.510;2023-05-25T06:44:02;101935.03;;;25.96;28.04
21988;BME280;11158;53.404;-1.510;2023-05-25T06:46:46;101938.50;;;24.72;29.79
21988;BME280;11158;53.404;-1.510;2023-05-25T06:49:31;101932.28;;;25.96;27.93
21988;BME280;11158;53.404;-1.510;2023-05-25T06:52:15;101923.47;;;28.18;25.54
21988;BME280;11158;53.404;-1.510;2023-05-25T06:54:59;101929.69;;;28.51;24.48
21988;BME280;11158;53.404;-1.510;2023-05-25T06:57:44;101936.69;;;28.79;24.00
21988;BME280;11158;53.404;-1.510;2023-05-25T07:00:28;101945.03;;;27.99;24.99
21988;BME280;11158;53.404;-1.510;2023-05-25T07:03:12;101957.63;;;24.60;29.86
21988;BME280;11158;53.404;-1.510;2023-05-25T07:05:57;101939.81;;;27.11;26.89
21988;BME280;11158;53.404;-1.510;2023-05-25T07:08:41;101951.50;;;25.34;29.23
21988;BME280;11158;53.404;-1.510;2023-05-25T07:11:25;101944.41;;;27.54;24.44
21988;BME280;11158;53.404;-1.510;2023-05-25T07:14:10;101956.84;;;25.28;26.69
21988;BME280;11158;53.404;-1.510;2023-05-25T07:16:54;101964.66;;;25.37;27.49
21988;BME280;11158;53.404;-1.510;2023-05-25T07:19:39;101963.25;;;24.18;29.13
21988;BME280;11158;53.404;-1.510;2023-05-25T07:22:25;101970.66;;;25.50;26.88
21988;BME280;11158;53.404;-1.510;2023-05-25T07:25:09;101967.06;;;26.51;26.19
21988;BME280;11158;53.404;-1.510;2023-05-25T07:27:53;101965.72;;;27.42;24.97
21988;BME280;11158;53.404;-1.510;2023-05-25T07:30:39;101965.78;;;26.76;26.06
21988;BME280;11158;53.404;-1.510;2023-05-25T07:33:23;101955.03;;;29.67;22.96
21988;BME280;11158;53.404;-1.510;2023-05-25T07:36:08;101972.41;;;26.80;26.46
21988;BME280;11158;53.404;-1.510;2023-05-25T07:38:53;101954.47;;;29.44;24.05
21988;BME280;11158;53.404;-1.510;2023-05-25T07:41:38;101961.66;;;28.67;24.57
21988;BME280;11158;53.404;-1.510;2023-05-25T07:44:22;101975.19;;;26.07;28.79
21988;BME280;11158;53.404;-1.510;2023-05-25T07:47:06;101974.19;;;27.41;27.60
21988;BME280;11158;53.404;-1.510;2023-05-25T07:49:50;101969.72;;;27.34;27.25
21988;BME280;11158;53.404;-1.510;2023-05-25T07:52:34;101989.72;;;21.66;37.52
21988;BME280;11158;53.404;-1.510;2023-05-25T07:55:19;101988.75;;;20.23;39.38
21988;BME280;11158;53.404;-1.510;2023-05-25T07:58:03;101996.00;;;20.76;39.27
21988;BME280;11158;53.404;-1.510;2023-05-25T08:00:50;101995.63;;;20.33;41.24
21988;BME280;11158;53.404;-1.510;2023-05-25T08:03:34;101999.41;;;20.12;40.99
21988;BME280;11158;53.404;-1.510;2023-05-25T08:06:21;101993.34;;;20.29;40.63
21988;BME280;11158;53.404;-1.510;2023-05-25T08:09:06;101996.31;;;19.33;40.60
21988;BME280;11158;53.404;-1.510;2023-05-25T08:11:50;102003.38;;;19.21;40.55
21988;BME280;11158;53.404;-1.510;2023-05-25T08:14:34;102011.81;;;18.63;42.15
21988;BME280;11158;53.404;-1.510;2023-05-25T08:17:19;102011.56;;;18.86;42.67
21988;BME280;11158;53.404;-1.510;2023-05-25T08:20:07;102012.50;;;19.07;41.66
21988;BME280;11158;53.404;-1.510;2023-05-25T08:22:57;102021.81;;;19.45;41.31
21988;BME280;11158;53.404;-1.510;2023-05-25T08:25:43;102029.00;;;17.77;43.08
21988;BME280;11158;53.404;-1.510;2023-05-25T08:28:28;102023.13;;;18.73;42.47
21988;BME280;11158;53.404;-1.510;2023-05-25T08:31:12;102028.44;;;18.53;43.14
21988;BME280;11158;53.404;-1.510;2023-05-25T08:33:57;102029.19;;;18.47;43.44
21988;BME280;11158;53.404;-1.510;2023-05-25T08:36:42;102017.88;;;19.00;42.46
21988;BME280;11158;53.404;-1.510;2023-05-25T08:39:27;102026.94;;;18.79;42.70
21988;BME280;11158;53.404;-1.510;2023-05-25T08:42:11;102024.56;;;18.41;44.86
21988;BME280;11158;53.404;-1.510;2023-05-25T08:44:56;102026.72;;;18.80;43.94
21988;BME280;11158;53.404;-1.510;2023-05-25T08:47:42;102033.09;;;19.01;43.25
21988;BME280;11158;53.404;-1.510;2023-05-25T08:50:29;102024.56;;;19.52;42.51
21988;BME280;11158;53.404;-1.510;2023-05-25T08:53:15;102018.94;;;19.67;41.00
21988;BME280;11158;53.404;-1.510;2023-05-25T08:56:03;102024.00;;;19.83;40.53
21988;BME280;11158;53.404;-1.510;2023-05-25T08:59:06;102027.44;;;19.44;41.33
21988;BME280;11158;53.404;-1.510;2023-05-25T09:01:57;102021.50;;;19.75;40.90
21988;BME280;11158;53.404;-1.510;2023-05-25T09:04:44;102017.97;;;20.48;39.57
21988;BME280;11158;53.404;-1.510;2023-05-25T09:07:30;102019.25;;;20.12;40.06
21988;BME280;11158;53.404;-1.510;2023-05-25T09:10:15;102020.28;;;20.24;40.02
21988;BME280;11158;53.404;-1.510;2023-05-25T09:13:00;102012.47;;;21.40;37.41
21988;BME280;11158;53.404;-1.510;2023-05-25T09:15:46;102024.00;;;20.63;38.47
21988;BME280;11158;53.404;-1.510;2023-05-25T09:18:30;102035.19;;;19.54;41.19
21988;BME280;11158;53.404;-1.510;2023-05-25T09:21:15;102026.28;;;19.12;41.27
21988;BME280;11158;53.404;-1.510;2023-05-25T09:23:59;102035.53;;;19.37;40.69
21988;BME280;11158;53.404;-1.510;2023-05-25T09:26:44;102027.38;;;20.25;39.68
21988;BME280;11158;53.404;-1.510;2023-05-25T09:29:32;102028.16;;;19.11;39.09
21988;BME280;11158;53.404;-1.510;2023-05-25T09:32:17;102025.28;;;20.01;38.47
21988;BME280;11158;53.404;-1.510;2023-05-25T09:35:12;102029.97;;;18.97;38.72
21988;BME280;11158;53.404;-1.510;2023-05-25T09:37:57;102050.59;;;18.70;40.33
21988;BME280;11158;53.404;-1.510;2023-05-25T09:40:42;102048.28;;;18.95;39.64
21988;BME280;11158;53.404;-1.510;2023-05-25T09:43:26;102046.19;;;18.91;40.88
21988;BME280;11158;53.404;-1.510;2023-05-25T09:46:10;102045.97;;;18.64;41.17
21988;BME280;11158;53.404;-1.510;2023-05-25T09:48:57;102058.91;;;18.90;41.10
21988;BME280;11158;53.404;-1.510;2023-05-25T09:51:42;102041.09;;;19.71;40.83
21988;BME280;11158;53.404;-1.510;2023-05-25T09:54:26;102050.72;;;18.83;41.60
21988;BME280;11158;53.404;-1.510;2023-05-25T09:57:10;102058.75;;;19.05;40.98
21988;BME280;11158;53.404;-1.510;2023-05-25T09:59:55;102048.69;;;20.68;37.71
21988;BME280;11158;53.404;-1.510;2023-05-25T10:02:40;102046.59;;;20.37;38.42
21988;BME280;11158;53.404;-1.510;2023-05-25T10:05:24;102039.88;;;19.80;39.57
21988;BME280;11158;53.404;-1.510;2023-05-25T10:08:09;102047.56;;;19.76;39.66
21988;BME280;11158;53.404;-1.510;2023-05-25T10:10:54;102041.09;;;20.97;37.87
21988;BME280;11158;53.404;-1.510;2023-05-25T10:13:43;102041.69;;;19.59;37.61
21988;BME280;11158;53.404;-1.510;2023-05-25T10:16:31;102049.69;;;19.26;38.08
21988;BME280;11158;53.404;-1.510;2023-05-25T10:22:15;102040.94;;;19.92;37.46
21988;BME280;11158;53.404;-1.510;2023-05-25T10:25:26;102039.91;;;21.77;34.39
21988;BME280;11158;53.404;-1.510;2023-05-25T10:30:58;102038.66;;;20.76;37.43
21988;BME280;11158;53.404;-1.510;2023-05-25T10:33:43;102033.78;;;21.49;36.68
21988;BME280;11158;53.404;-1.510;2023-05-25T10:36:28;102031.94;;;20.45;38.39
21988;BME280;11158;53.404;-1.510;2023-05-25T10:39:14;102037.13;;;21.51;35.55
21988;BME280;11158;53.404;-1.510;2023-05-25T10:41:59;102038.78;;;21.01;35.84
21988;BME280;11158;53.404;-1.510;2023-05-25T10:44:45;102047.22;;;20.26;37.26
21988;BME280;11158;53.404;-1.510;2023-05-25T10:47:29;102049.06;;;21.37;36.12
21988;BME280;11158;53.404;-1.510;2023-05-25T10:50:22;102048.88;;;21.32;35.45
21988;BME280;11158;53.404;-1.510;2023-05-25T10:53:11;102044.31;;;22.03;34.51
21988;BME280;11158;53.404;-1.510;2023-05-25T10:58:45;102043.41;;;22.84;32.98
21988;BME280;11158;53.404;-1.510;2023-05-25T11:01:30;102039.47;;;22.80;33.44
21988;BME280;11158;53.404;-1.510;2023-05-25T11:04:17;102048.78;;;21.97;35.76
21988;BME280;11158;53.404;-1.510;2023-05-25T11:09:56;102050.44;;;21.60;35.21
21988;BME280;11158;53.404;-1.510;2023-05-25T11:12:41;102048.66;;;21.47;35.92
21988;BME280;11158;53.404;-1.510;2023-05-25T11:15:31;102051.13;;;21.87;34.92
21988;BME280;11158;53.404;-1.510;2023-05-25T11:18:15;102045.31;;;21.83;35.66
21988;BME280;11158;53.404;-1.510;2023-05-25T11:21:20;102046.97;;;23.21;32.36
21988;BME280;11158;53.404;-1.510;2023-05-25T11:24:16;102043.69;;;22.01;34.41
21988;BME280;11158;53.404;-1.510;2023-05-25T11:27:00;102036.13;;;22.96;33.71
21988;BME280;11158;53.404;-1.510;2023-05-25T11:29:49;102040.63;;;22.47;34.93
21988;BME280;11158;53.404;-1.510;2023-05-25T11:32:33;102037.34;;;22.82;33.24
21988;BME280;11158;53.404;-1.510;2023-05-25T11:35:24;102042.06;;;21.68;35.38
21988;BME280;11158;53.404;-1.510;2023-05-25T11:38:09;102040.69;;;21.39;36.25
21988;BME280;11158;53.404;-1.510;2023-05-25T11:40:54;102042.72;;;22.89;34.47
21988;BME280;11158;53.404;-1.510;2023-05-25T11:43:38;102042.25;;;22.30;34.31
21988;BME280;11158;53.404;-1.510;2023-05-25T11:46:23;102031.78;;;23.44;31.35
21988;BME280;11158;53.404;-1.510;2023-05-25T11:49:07;102036.97;;;22.03;33.43
21988;BME280;11158;53.404;-1.510;2023-05-25T11:51:53;102038.41;;;21.49;33.24
21988;BME280;11158;53.404;-1.510;2023-05-25T11:54:39;102032.00;;;21.68;33.28
21988;BME280;11158;53.404;-1.510;2023-05-25T11:57:24;102040.00;;;21.57;34.95
21988;BME280;11158;53.404;-1.510;2023-05-25T12:00:08;102027.88;;;22.66;33.12
21988;BME280;11158;53.404;-1.510;2023-05-25T12:02:54;102026.03;;;23.34;33.46
21988;BME280;11158;53.404;-1.510;2023-05-25T12:05:39;102033.75;;;21.56;33.14
21988;BME280;11158;53.404;-1.510;2023-05-25T12:08:33;102032.19;;;21.99;33.68
21988;BME280;11158;53.404;-1.510;2023-05-25T12:11:26;102026.50;;;22.75;33.02
21988;BME280;11158;53.404;-1.510;2023-05-25T12:14:11;102032.72;;;22.14;34.26
21988;BME280;11158;53.404;-1.510;2023-05-25T12:16:55;102033.69;;;22.26;32.98
21988;BME280;11158;53.404;-1.510;2023-05-25T12:19:40;102033.41;;;22.34;33.43
21988;BME280;11158;53.404;-1.510;2023-05-25T12:22:25;102030.44;;;23.35;32.20
21988;BME280;11158;53.404;-1.510;2023-05-25T12:25:11;102023.41;;;23.57;31.49
21988;BME280;11158;53.404;-1.510;2023-05-25T12:28:09;102025.72;;;22.50;31.91
21988;BME280;11158;53.404;-1.510;2023-05-25T12:30:54;102038.50;;;21.16;34.66
21988;BME280;11158;53.404;-1.510;2023-05-25T12:33:38;102032.88;;;22.19;33.67
21988;BME280;11158;53.404;-1.510;2023-05-25T12:39:42;102024.19;;;20.75;36.93
21988;BME280;11158;53.404;-1.510;2023-05-25T12:42:28;102029.25;;;20.65;36.74
21988;BME280;11158;53.404;-1.510;2023-05-25T12:45:15;102015.19;;;21.78;34.15
21988;BME280;11158;53.404;-1.510;2023-05-25T12:47:59;102017.91;;;21.78;33.73
21988;BME280;11158;53.404;-1.510;2023-05-25T12:50:57;102007.13;;;23.51;31.50
21988;BME280;11158;53.404;-1.510;2023-05-25T12:53:49;102015.69;;;21.62;33.92
21988;BME280;11158;53.404;-1.510;2023-05-25T12:56:33;102006.84;;;22.30;32.67
21988;BME280;11158;53.404;-1.510;2023-05-25T12:59:17;102002.19;;;21.80;33.80
21988;BME280;11158;53.404;-1.510;2023-05-25T13:02:03;101994.06;;;23.23;32.26
21988;BME280;11158;53.404;-1.510;2023-05-25T13:04:47;102010.25;;;21.93;34.80
21988;BME280;11158;53.404;-1.510;2023-05-25T13:07:32;102008.78;;;21.66;34.61
21988;BME280;11158;53.404;-1.510;2023-05-25T13:10:16;102008.72;;;22.91;32.01
21988;BME280;11158;53.404;-1.510;2023-05-25T13:13:00;101988.53;;;24.25;29.15
21988;BME280;11158;53.404;-1.510;2023-05-25T13:15:45;101982.41;;;24.94;28.34
21988;BME280;11158;53.404;-1.510;2023-05-25T13:18:29;101996.31;;;22.95;30.21
21988;BME280;11158;53.404;-1.510;2023-05-25T13:21:13;101987.91;;;23.76;29.60
21988;BME280;11158;53.404;-1.510;2023-05-25T13:23:57;101986.13;;;25.74;26.68
21988;BME280;11158;53.404;-1.510;2023-05-25T13:26:42;101988.91;;;24.17;29.06
21988;BME280;11158;53.404;-1.510;2023-05-25T13:29:29;101988.94;;;23.45;30.89
21988;BME280;11158;53.404;-1.510;2023-05-25T13:32:13;101992.91;;;22.82;31.63
21988;BME280;11158;53.404;-1.510;2023-05-25T13:34:58;101998.63;;;24.13;29.95
21988;BME280;11158;53.404;-1.510;2023-05-25T13:37:43;101993.34;;;23.15;31.38
21988;BME280;11158;53.404;-1.510;2023-05-25T13:40:28;101979.72;;;23.88;30.58
21988;BME280;11158;53.404;-1.510;2023-05-25T13:43:12;101996.56;;;23.54;31.26
21988;BME280;11158;53.404;-1.510;2023-05-25T13:45:56;101996.84;;;23.04;32.08
21988;BME280;11158;53.404;-1.510;2023-05-25T13:48:41;101998.06;;;22.28;33.22
21988;BME280;11158;53.404;-1.510;2023-05-25T13:51:29;101999.84;;;22.59;32.25
21988;BME280;11158;53.404;-1.510;2023-05-25T13:54:13;102004.56;;;22.02;33.81
21988;BME280;11158;53.404;-1.510;2023-05-25T13:56:58;102004.06;;;22.36;32.83
21988;BME280;11158;53.404;-1.510;2023-05-25T13:59:42;102000.28;;;22.93;32.09
21988;BME280;11158;53.404;-1.510;2023-05-25T14:02:26;102000.63;;;23.03;31.49
21988;BME280;11158;53.404;-1.510;2023-05-25T14:05:10;101992.13;;;24.49;29.35
21988;BME280;11158;53.404;-1.510;2023-05-25T14:07:54;101981.97;;;24.02;30.00
21988;BME280;11158;53.404;-1.510;2023-05-25T14:10:38;101986.19;;;25.79;27.26
21988;BME280;11158;53.404;-1.510;2023-05-25T14:13:22;101988.19;;;25.66;26.87
21988;BME280;11158;53.404;-1.510;2023-05-25T14:16:06;101987.22;;;24.16;28.87
21988;BME280;11158;53.404;-1.510;2023-05-25T14:18:50;101990.66;;;24.35;28.86
21988;BME280;11158;53.404;-1.510;2023-05-25T14:21:35;101987.91;;;23.76;29.52
21988;BME280;11158;53.404;-1.510;2023-05-25T14:24:20;101995.84;;;22.80;31.22
21988;BME280;11158;53.404;-1.510;2023-05-25T14:27:04;101994.84;;;22.74;30.58
21988;BME280;11158;53.404;-1.510;2023-05-25T14:29:50;102003.25;;;22.91;30.05
21988;BME280;11158;53.404;-1.510;2023-05-25T14:32:35;101989.94;;;23.80;29.24